Ticonic, Iowa
Current Conditions -  °F | °C
As of 2:54 AM on Saturday 01 Nov 2014 (Local Time) from KTQE Reporting Station
Clear Clear  
Wind Chill: 22°   Ceiling: Unl
Heat Index: 22°   Visibility: 10mi
Dew Point: 16°   Wind: 3mph
Humidity: 78%   Direction: 190°S
Pressure: 30.45"   Gusts: NA
Location:  42.105°N, 95.9553°W
Report Text: KTQE 010754Z AUTO 19003KT 10SM CLR M06/M09 A3045 RMK AO2 SLP317 T10561089
Loading
Personal Weather Stations






























Interactive Weather Map
Tropical Storm Tracking
New forecast layout! Learn more

10-Day Weather Forecast

Advertisements
Track Severe Weather on mobile